sensor_id;sensor_type;location;lat;lon;timestamp;temperature;humidity
1083;DHT22;530;51.448;7.238;2023-09-07T00:01:49;19.10;99.90
1083;DHT22;530;51.448;7.238;2023-09-07T00:04:18;19.10;99.90
1083;DHT22;530;51.448;7.238;2023-09-07T00:06:44;19.00;99.90
1083;DHT22;530;51.448;7.238;2023-09-07T00:09:10;18.90;99.90
1083;DHT22;530;51.448;7.238;2023-09-07T00:11:37;18.80;99.90
1083;DHT22;530;51.448;7.238;2023-09-07T00:14:03;18.80;99.90
1083;DHT22;530;51.448;7.238;2023-09-07T00:16:31;18.70;99.90
1083;DHT22;530;51.448;7.238;2023-09-07T00:18:59;18.70;99.90
1083;DHT22;530;51.448;7.238;2023-09-07T00:21:25;18.70;99.90
1083;DHT22;530;51.448;7.238;2023-09-07T00:23:51;18.60;99.90
1083;DHT22;530;51.448;7.238;2023-09-07T00:26:16;18.60;99.90
1083;DHT22;530;51.448;7.238;2023-09-07T00:28:42;18.60;99.90
1083;DHT22;530;51.448;7.238;2023-09-07T00:31:08;18.60;99.90
1083;DHT22;530;51.448;7.238;2023-09-07T00:33:33;18.70;99.90
1083;DHT22;530;51.448;7.238;2023-09-07T00:36:02;18.70;99.90
1083;DHT22;530;51.448;7.238;2023-09-07T00:38:28;18.70;99.90
1083;DHT22;530;51.448;7.238;2023-09-07T00:40:54;18.80;99.90
1083;DHT22;530;51.448;7.238;2023-09-07T00:43:20;18.90;99.90
1083;DHT22;530;51.448;7.238;2023-09-07T00:45:46;18.90;99.90
1083;DHT22;530;51.448;7.238;2023-09-07T00:48:13;19.00;99.90
1083;DHT22;530;51.448;7.238;2023-09-07T00:50:41;19.00;99.90
1083;DHT22;530;51.448;7.238;2023-09-07T00:53:07;19.00;99.90
1083;DHT22;530;51.448;7.238;2023-09-07T00:55:33;19.10;99.90
1083;DHT22;530;51.448;7.238;2023-09-07T00:58:01;19.20;99.90
1083;DHT22;530;51.448;7.238;2023-09-07T01:00:28;19.20;99.90
1083;DHT22;530;51.448;7.238;2023-09-07T01:02:54;19.20;99.90
1083;DHT22;530;51.448;7.238;2023-09-07T01:05:37;19.20;99.90
1083;DHT22;530;51.448;7.238;2023-09-07T01:08:26;19.20;99.90
1083;DHT22;530;51.448;7.238;2023-09-07T01:10:54;19.20;99.90
1083;DHT22;530;51.448;7.238;2023-09-07T01:13:20;19.20;99.90
1083;DHT22;530;51.448;7.238;2023-09-07T01:15:46;19.10;99.90
1083;DHT22;530;51.448;7.238;2023-09-07T01:18:12;19.10;99.90
1083;DHT22;530;51.448;7.238;2023-09-07T01:20:40;19.10;99.90
1083;DHT22;530;51.448;7.238;2023-09-07T01:23:07;19.10;99.90
1083;DHT22;530;51.448;7.238;2023-09-07T01:25:33;19.00;99.90
1083;DHT22;530;51.448;7.238;2023-09-07T01:27:59;19.10;99.90
1083;DHT22;530;51.448;7.238;2023-09-07T01:30:27;19.10;99.90
1083;DHT22;530;51.448;7.238;2023-09-07T01:32:53;19.20;99.90
1083;DHT22;530;51.448;7.238;2023-09-07T01:35:18;19.20;99.90
1083;DHT22;530;51.448;7.238;2023-09-07T01:37:47;19.10;99.90
1083;DHT22;530;51.448;7.238;2023-09-07T01:40:13;19.10;99.90
1083;DHT22;530;51.448;7.238;2023-09-07T01:42:39;19.10;99.90
1083;DHT22;530;51.448;7.238;2023-09-07T01:45:05;19.10;99.90
1083;DHT22;530;51.448;7.238;2023-09-07T01:47:31;19.10;99.90
1083;DHT22;530;51.448;7.238;2023-09-07T01:49:56;19.00;99.90
1083;DHT22;530;51.448;7.238;2023-09-07T01:52:22;19.00;99.90
1083;DHT22;530;51.448;7.238;2023-09-07T01:54:48;19.00;99.90
1083;DHT22;530;51.448;7.238;2023-09-07T01:57:13;19.00;99.90
1083;DHT22;530;51.448;7.238;2023-09-07T01:59:39;18.90;99.90
1083;DHT22;530;51.448;7.238;2023-09-07T02:02:05;18.90;99.90
1083;DHT22;530;51.448;7.238;2023-09-07T02:04:30;18.90;99.90
1083;DHT22;530;51.448;7.238;2023-09-07T02:06:56;18.90;99.90
1083;DHT22;530;51.448;7.238;2023-09-07T02:09:22;18.90;99.90
1083;DHT22;530;51.448;7.238;2023-09-07T02:11:48;18.90;99.90
1083;DHT22;530;51.448;7.238;2023-09-07T02:14:13;18.90;99.90
1083;DHT22;530;51.448;7.238;2023-09-07T02:16:39;18.90;99.90
1083;DHT22;530;51.448;7.238;2023-09-07T02:19:06;18.90;99.90
1083;DHT22;530;51.448;7.238;2023-09-07T02:21:34;19.00;99.90
1083;DHT22;530;51.448;7.238;2023-09-07T02:24:00;18.90;99.90
1083;DHT22;530;51.448;7.238;2023-09-07T02:26:25;18.90;99.90
1083;DHT22;530;51.448;7.238;2023-09-07T02:28:51;18.90;99.90
1083;DHT22;530;51.448;7.238;2023-09-07T02:31:17;18.80;99.90
1083;DHT22;530;51.448;7.238;2023-09-07T02:33:42;18.70;99.90
1083;DHT22;530;51.448;7.238;2023-09-07T02:36:08;18.60;99.90
1083;DHT22;530;51.448;7.238;2023-09-07T02:38:34;18.60;99.90
1083;DHT22;530;51.448;7.238;2023-09-07T02:40:59;18.60;99.90
1083;DHT22;530;51.448;7.238;2023-09-07T02:43:26;18.50;99.90
1083;DHT22;530;51.448;7.238;2023-09-07T02:45:52;18.50;99.90
1083;DHT22;530;51.448;7.238;2023-09-07T02:48:17;18.50;99.90
1083;DHT22;530;51.448;7.238;2023-09-07T02:50:43;18.50;99.90
1083;DHT22;530;51.448;7.238;2023-09-07T02:53:14;18.40;99.90
1083;DHT22;530;51.448;7.238;2023-09-07T02:55:40;18.40;99.90
1083;DHT22;530;51.448;7.238;2023-09-07T02:58:05;18.30;99.90
1083;DHT22;530;51.448;7.238;2023-09-07T03:00:31;18.30;99.90
1083;DHT22;530;51.448;7.238;2023-09-07T03:02:57;18.30;99.90
1083;DHT22;530;51.448;7.238;2023-09-07T03:05:27;18.20;99.90
1083;DHT22;530;51.448;7.238;2023-09-07T03:07:53;18.20;99.90
1083;DHT22;530;51.448;7.238;2023-09-07T03:10:19;18.20;99.90
1083;DHT22;530;51.448;7.238;2023-09-07T03:12:45;18.20;99.90
1083;DHT22;530;51.448;7.238;2023-09-07T03:15:11;18.10;99.90
1083;DHT22;530;51.448;7.238;2023-09-07T03:17:37;18.10;99.90
1083;DHT22;530;51.448;7.238;2023-09-07T03:20:03;18.10;99.90
1083;DHT22;530;51.448;7.238;2023-09-07T03:22:47;18.10;99.90
1083;DHT22;530;51.448;7.238;2023-09-07T03:25:13;18.10;99.90
1083;DHT22;530;51.448;7.238;2023-09-07T03:27:40;18.10;99.90
1083;DHT22;530;51.448;7.238;2023-09-07T03:30:06;18.10;99.90
1083;DHT22;530;51.448;7.238;2023-09-07T03:32:33;18.00;99.90
1083;DHT22;530;51.448;7.238;2023-09-07T03:35:04;18.00;99.90
1083;DHT22;530;51.448;7.238;2023-09-07T03:37:35;18.10;99.90
1083;DHT22;530;51.448;7.238;2023-09-07T03:40:01;18.00;99.90
1083;DHT22;530;51.448;7.238;2023-09-07T03:42:26;17.90;99.90
1083;DHT22;530;51.448;7.238;2023-09-07T03:44:52;17.90;99.90
1083;DHT22;530;51.448;7.238;2023-09-07T03:47:18;17.90;99.90
1083;DHT22;530;51.448;7.238;2023-09-07T03:49:43;17.90;99.90
1083;DHT22;530;51.448;7.238;2023-09-07T03:52:09;17.90;99.90
1083;DHT22;530;51.448;7.238;2023-09-07T03:54:35;17.90;99.90
1083;DHT22;530;51.448;7.238;2023-09-07T03:57:01;17.90;99.90
1083;DHT22;530;51.448;7.238;2023-09-07T03:59:28;17.80;99.90
1083;DHT22;530;51.448;7.238;2023-09-07T04:01:53;17.70;99.90
1083;DHT22;530;51.448;7.238;2023-09-07T04:04:20;17.60;99.90
1083;DHT22;530;51.448;7.238;2023-09-07T04:06:49;17.50;99.90
1083;DHT22;530;51.448;7.238;2023-09-07T04:09:15;17.40;99.90
1083;DHT22;530;51.448;7.238;2023-09-07T04:11:40;17.40;99.90
1083;DHT22;530;51.448;7.238;2023-09-07T04:14:06;17.40;99.90
1083;DHT22;530;51.448;7.238;2023-09-07T04:16:32;17.40;99.90
1083;DHT22;530;51.448;7.238;2023-09-07T04:18:57;17.40;99.90
1083;DHT22;530;51.448;7.238;2023-09-07T04:21:23;17.40;99.90
1083;DHT22;530;51.448;7.238;2023-09-07T04:23:49;17.50;99.90
1083;DHT22;530;51.448;7.238;2023-09-07T04:26:14;17.50;99.90
1083;DHT22;530;51.448;7.238;2023-09-07T04:28:40;17.50;99.90
1083;DHT22;530;51.448;7.238;2023-09-07T04:31:06;17.50;99.90
1083;DHT22;530;51.448;7.238;2023-09-07T04:33:33;17.40;99.90
1083;DHT22;530;51.448;7.238;2023-09-07T04:36:14;17.30;99.90
1083;DHT22;530;51.448;7.238;2023-09-07T04:38:41;17.20;99.90
1083;DHT22;530;51.448;7.238;2023-09-07T04:41:11;17.10;99.90
1083;DHT22;530;51.448;7.238;2023-09-07T04:43:38;17.10;99.90
1083;DHT22;530;51.448;7.238;2023-09-07T04:46:06;17.00;99.90
1083;DHT22;530;51.448;7.238;2023-09-07T04:48:32;17.00;99.90
1083;DHT22;530;51.448;7.238;2023-09-07T04:51:04;17.10;99.90
1083;DHT22;530;51.448;7.238;2023-09-07T04:53:34;17.10;99.90
1083;DHT22;530;51.448;7.238;2023-09-07T04:56:01;17.20;99.90
1083;DHT22;530;51.448;7.238;2023-09-07T04:58:27;17.20;99.90
1083;DHT22;530;51.448;7.238;2023-09-07T05:00:53;17.30;99.90
1083;DHT22;530;51.448;7.238;2023-09-07T05:03:19;17.30;99.90
1083;DHT22;530;51.448;7.238;2023-09-07T05:05:44;17.20;99.90
1083;DHT22;530;51.448;7.238;2023-09-07T05:08:10;17.20;99.90
1083;DHT22;530;51.448;7.238;2023-09-07T05:10:37;17.20;99.90
1083;DHT22;530;51.448;7.238;2023-09-07T05:13:03;17.20;99.90
1083;DHT22;530;51.448;7.238;2023-09-07T05:15:29;17.20;99.90
1083;DHT22;530;51.448;7.238;2023-09-07T05:17:55;17.10;99.90
1083;DHT22;530;51.448;7.238;2023-09-07T05:20:21;17.20;99.90
1083;DHT22;530;51.448;7.238;2023-09-07T05:22:47;17.30;99.90
1083;DHT22;530;51.448;7.238;2023-09-07T05:25:13;17.30;99.90
1083;DHT22;530;51.448;7.238;2023-09-07T05:27:39;17.20;99.90
1083;DHT22;530;51.448;7.238;2023-09-07T05:30:05;17.30;99.90
1083;DHT22;530;51.448;7.238;2023-09-07T05:32:31;17.30;99.90
1083;DHT22;530;51.448;7.238;2023-09-07T05:34:57;17.20;99.90
1083;DHT22;530;51.448;7.238;2023-09-07T05:37:23;17.20;99.90
1083;DHT22;530;51.448;7.238;2023-09-07T05:39:49;17.30;99.90
1083;DHT22;530;51.448;7.238;2023-09-07T05:42:15;17.40;99.90
1083;DHT22;530;51.448;7.238;2023-09-07T05:44:41;17.40;99.90
1083;DHT22;530;51.448;7.238;2023-09-07T05:47:06;17.50;99.90
1083;DHT22;530;51.448;7.238;2023-09-07T05:49:32;17.60;99.90
1083;DHT22;530;51.448;7.238;2023-09-07T05:51:58;17.70;99.90
1083;DHT22;530;51.448;7.238;2023-09-07T05:54:23;17.80;99.90
1083;DHT22;530;51.448;7.238;2023-09-07T05:56:49;17.90;99.90
1083;DHT22;530;51.448;7.238;2023-09-07T05:59:15;18.00;99.90
1083;DHT22;530;51.448;7.238;2023-09-07T06:01:41;18.10;99.90
1083;DHT22;530;51.448;7.238;2023-09-07T06:04:07;18.30;99.90
1083;DHT22;530;51.448;7.238;2023-09-07T06:06:33;18.40;99.90
1083;DHT22;530;51.448;7.238;2023-09-07T06:08:58;18.60;99.90
1083;DHT22;530;51.448;7.238;2023-09-07T06:11:25;18.70;99.90
1083;DHT22;530;51.448;7.238;2023-09-07T06:13:51;18.90;99.90
1083;DHT22;530;51.448;7.238;2023-09-07T06:16:17;19.10;99.90
1083;DHT22;530;51.448;7.238;2023-09-07T06:18:43;19.30;99.90
1083;DHT22;530;51.448;7.238;2023-09-07T06:21:09;19.50;99.90
1083;DHT22;530;51.448;7.238;2023-09-07T06:23:34;19.60;99.90
1083;DHT22;530;51.448;7.238;2023-09-07T06:26:00;19.70;99.90
1083;DHT22;530;51.448;7.238;2023-09-07T06:28:26;19.80;99.90
1083;DHT22;530;51.448;7.238;2023-09-07T06:30:52;19.90;99.90
1083;DHT22;530;51.448;7.238;2023-09-07T06:33:18;20.10;99.90
1083;DHT22;530;51.448;7.238;2023-09-07T06:35:44;20.30;99.90
1083;DHT22;530;51.448;7.238;2023-09-07T06:38:09;20.30;99.90
1083;DHT22;530;51.448;7.238;2023-09-07T06:40:35;20.40;99.90
1083;DHT22;530;51.448;7.238;2023-09-07T06:43:02;20.50;99.90
1083;DHT22;530;51.448;7.238;2023-09-07T06:45:36;20.50;99.90
1083;DHT22;530;51.448;7.238;2023-09-07T06:48:03;20.50;99.90
1083;DHT22;530;51.448;7.238;2023-09-07T06:50:29;20.50;99.90
1083;DHT22;530;51.448;7.238;2023-09-07T06:52:55;20.60;99.90
1083;DHT22;530;51.448;7.238;2023-09-07T06:55:20;20.70;99.90
1083;DHT22;530;51.448;7.238;2023-09-07T06:57:46;20.80;99.90
1083;DHT22;530;51.448;7.238;2023-09-07T07:00:12;20.80;99.90
1083;DHT22;530;51.448;7.238;2023-09-07T07:02:38;20.90;99.90
1083;DHT22;530;51.448;7.238;2023-09-07T07:05:04;20.90;99.90
1083;DHT22;530;51.448;7.238;2023-09-07T07:07:30;21.00;99.90
1083;DHT22;530;51.448;7.238;2023-09-07T07:09:56;21.00;99.90
1083;DHT22;530;51.448;7.238;2023-09-07T07:12:22;21.10;99.90
1083;DHT22;530;51.448;7.238;2023-09-07T07:14:47;21.10;99.90
1083;DHT22;530;51.448;7.238;2023-09-07T07:17:13;21.20;99.90
1083;DHT22;530;51.448;7.238;2023-09-07T07:19:39;21.10;99.90
1083;DHT22;530;51.448;7.238;2023-09-07T07:22:04;21.20;99.90
1083;DHT22;530;51.448;7.238;2023-09-07T07:24:30;21.30;99.90
1083;DHT22;530;51.448;7.238;2023-09-07T07:26:56;21.40;99.90
1083;DHT22;530;51.448;7.238;2023-09-07T07:29:21;21.40;99.90
1083;DHT22;530;51.448;7.238;2023-09-07T07:31:47;21.60;99.90
1083;DHT22;530;51.448;7.238;2023-09-07T07:34:13;21.70;99.90
1083;DHT22;530;51.448;7.238;2023-09-07T07:36:39;21.80;99.90
1083;DHT22;530;51.448;7.238;2023-09-07T07:39:05;21.90;99.90
1083;DHT22;530;51.448;7.238;2023-09-07T07:41:32;22.00;99.90
1083;DHT22;530;51.448;7.238;2023-09-07T07:43:58;22.10;99.90
1083;DHT22;530;51.448;7.238;2023-09-07T07:46:24;22.20;99.90
1083;DHT22;530;51.448;7.238;2023-09-07T07:48:50;22.20;99.90
1083;DHT22;530;51.448;7.238;2023-09-07T07:51:16;22.30;99.90
1083;DHT22;530;51.448;7.238;2023-09-07T07:53:41;22.30;99.90
1083;DHT22;530;51.448;7.238;2023-09-07T07:56:17;22.40;99.90
1083;DHT22;530;51.448;7.238;2023-09-07T07:58:43;22.50;99.90
1083;DHT22;530;51.448;7.238;2023-09-07T08:01:17;22.50;99.90
1083;DHT22;530;51.448;7.238;2023-09-07T08:03:43;22.50;99.90
1083;DHT22;530;51.448;7.238;2023-09-07T08:06:10;22.60;99.90
1083;DHT22;530;51.448;7.238;2023-09-07T08:08:36;22.60;99.90
1083;DHT22;530;51.448;7.238;2023-09-07T08:11:02;22.60;99.90
1083;DHT22;530;51.448;7.238;2023-09-07T08:13:32;22.70;99.90
1083;DHT22;530;51.448;7.238;2023-09-07T08:16:00;22.70;99.90
1083;DHT22;530;51.448;7.238;2023-09-07T08:18:26;22.80;99.90
1083;DHT22;530;51.448;7.238;2023-09-07T08:20:52;22.90;99.90
1083;DHT22;530;51.448;7.238;2023-09-07T08:23:19;23.00;99.90
1083;DHT22;530;51.448;7.238;2023-09-07T08:25:45;23.00;99.90
1083;DHT22;530;51.448;7.238;2023-09-07T08:28:12;23.20;99.90
1083;DHT22;530;51.448;7.238;2023-09-07T08:30:38;23.20;99.90
1083;DHT22;530;51.448;7.238;2023-09-07T08:33:04;23.30;99.90
1083;DHT22;530;51.448;7.238;2023-09-07T08:35:32;23.30;99.90
1083;DHT22;530;51.448;7.238;2023-09-07T08:38:01;23.30;99.90
1083;DHT22;530;51.448;7.238;2023-09-07T08:40:30;23.40;99.90
1083;DHT22;530;51.448;7.238;2023-09-07T08:43:01;23.40;99.90
1083;DHT22;530;51.448;7.238;2023-09-07T08:45:30;23.50;99.90
1083;DHT22;530;51.448;7.238;2023-09-07T08:47:58;23.50;99.90
1083;DHT22;530;51.448;7.238;2023-09-07T08:50:24;23.50;99.90
1083;DHT22;530;51.448;7.238;2023-09-07T08:52:52;23.60;99.90
1083;DHT22;530;51.448;7.238;2023-09-07T08:55:18;23.70;99.90
1083;DHT22;530;51.448;7.238;2023-09-07T08:57:45;23.80;99.90
1083;DHT22;530;51.448;7.238;2023-09-07T09:00:11;23.90;99.90
1083;DHT22;530;51.448;7.238;2023-09-07T09:02:42;23.90;99.90
1083;DHT22;530;51.448;7.238;2023-09-07T09:05:12;24.00;99.90
1083;DHT22;530;51.448;7.238;2023-09-07T09:07:39;24.00;99.90
1083;DHT22;530;51.448;7.238;2023-09-07T09:10:07;24.10;99.90
1083;DHT22;530;51.448;7.238;2023-09-07T09:12:33;24.20;99.90
1083;DHT22;530;51.448;7.238;2023-09-07T09:15:00;24.20;99.90
1083;DHT22;530;51.448;7.238;2023-09-07T09:17:27;24.40;99.90
1083;DHT22;530;51.448;7.238;2023-09-07T09:19:52;24.40;99.90
1083;DHT22;530;51.448;7.238;2023-09-07T09:22:18;24.50;99.90
1083;DHT22;530;51.448;7.238;2023-09-07T09:24:48;24.60;99.90
1083;DHT22;530;51.448;7.238;2023-09-07T09:27:14;24.70;99.90
1083;DHT22;530;51.448;7.238;2023-09-07T09:29:39;24.80;99.90
1083;DHT22;530;51.448;7.238;2023-09-07T09:32:07;24.90;99.90
1083;DHT22;530;51.448;7.238;2023-09-07T09:34:36;25.00;99.90
1083;DHT22;530;51.448;7.238;2023-09-07T09:37:03;25.10;99.90
1083;DHT22;530;51.448;7.238;2023-09-07T09:39:29;25.30;99.90
1083;DHT22;530;51.448;7.238;2023-09-07T09:41:55;25.40;99.90
1083;DHT22;530;51.448;7.238;2023-09-07T09:44:22;25.50;99.90
1083;DHT22;530;51.448;7.238;2023-09-07T09:46:55;25.60;99.90
1083;DHT22;530;51.448;7.238;2023-09-07T09:49:22;25.70;99.90
1083;DHT22;530;51.448;7.238;2023-09-07T09:51:49;25.90;99.90
1083;DHT22;530;51.448;7.238;2023-09-07T09:54:19;26.00;99.90
1083;DHT22;530;51.448;7.238;2023-09-07T09:56:44;26.10;99.90
1083;DHT22;530;51.448;7.238;2023-09-07T09:59:19;26.20;99.90
1083;DHT22;530;51.448;7.238;2023-09-07T10:01:46;26.20;99.90
1083;DHT22;530;51.448;7.238;2023-09-07T10:04:16;26.30;99.90
1083;DHT22;530;51.448;7.238;2023-09-07T10:06:58;26.40;99.90
1083;DHT22;530;51.448;7.238;2023-09-07T10:09:29;26.50;99.90
1083;DHT22;530;51.448;7.238;2023-09-07T10:11:57;26.50;99.90
1083;DHT22;530;51.448;7.238;2023-09-07T10:14:25;26.60;99.90
1083;DHT22;530;51.448;7.238;2023-09-07T10:16:52;26.70;99.90
1083;DHT22;530;51.448;7.238;2023-09-07T10:19:24;26.70;99.90
1083;DHT22;530;51.448;7.238;2023-09-07T10:21:52;26.80;99.90
1083;DHT22;530;51.448;7.238;2023-09-07T10:29:23;27.00;99.90
1083;DHT22;530;51.448;7.238;2023-09-07T10:31:52;27.00;99.90
1083;DHT22;530;51.448;7.238;2023-09-07T10:34:18;27.10;99.70
1083;DHT22;530;51.448;7.238;2023-09-07T10:36:44;27.20;99.90
1083;DHT22;530;51.448;7.238;2023-09-07T10:39:10;27.20;99.90
1083;DHT22;530;51.448;7.238;2023-09-07T10:41:42;27.20;99.40
1083;DHT22;530;51.448;7.238;2023-09-07T10:44:08;27.20;99.90
1083;DHT22;530;51.448;7.238;2023-09-07T10:46:37;27.30;99.50
1083;DHT22;530;51.448;7.238;2023-09-07T10:49:03;27.40;99.90
1083;DHT22;530;51.448;7.238;2023-09-07T10:51:29;27.40;99.50
1083;DHT22;530;51.448;7.238;2023-09-07T10:53:55;27.40;99.30
1083;DHT22;530;51.448;7.238;2023-09-07T10:56:24;27.40;99.90
1083;DHT22;530;51.448;7.238;2023-09-07T10:58:54;27.40;99.00
1083;DHT22;530;51.448;7.238;2023-09-07T11:01:20;27.50;99.20
1083;DHT22;530;51.448;7.238;2023-09-07T11:03:46;27.60;99.70
1083;DHT22;530;51.448;7.238;2023-09-07T11:06:17;27.70;97.90
1083;DHT22;530;51.448;7.238;2023-09-07T11:08:47;27.80;98.10
1083;DHT22;530;51.448;7.238;2023-09-07T11:11:13;27.90;98.20
1083;DHT22;530;51.448;7.238;2023-09-07T11:13:39;27.90;97.40
1083;DHT22;530;51.448;7.238;2023-09-07T11:16:08;28.00;98.20
1083;DHT22;530;51.448;7.238;2023-09-07T11:18:34;28.00;97.50
1083;DHT22;530;51.448;7.238;2023-09-07T11:21:03;28.00;97.90
1083;DHT22;530;51.448;7.238;2023-09-07T11:23:31;28.10;99.20
1083;DHT22;530;51.448;7.238;2023-09-07T11:26:08;28.20;98.90
1083;DHT22;530;51.448;7.238;2023-09-07T11:28:34;28.20;98.20
1083;DHT22;530;51.448;7.238;2023-09-07T11:31:00;28.20;97.30
1083;DHT22;530;51.448;7.238;2023-09-07T11:33:26;28.30;97.30
1083;DHT22;530;51.448;7.238;2023-09-07T11:35:53;28.30;96.80
1083;DHT22;530;51.448;7.238;2023-09-07T11:38:21;28.30;97.30
1083;DHT22;530;51.448;7.238;2023-09-07T11:40:48;28.40;98.00
1083;DHT22;530;51.448;7.238;2023-09-07T11:43:14;28.40;97.40
1083;DHT22;530;51.448;7.238;2023-09-07T11:45:42;28.50;97.00
1083;DHT22;530;51.448;7.238;2023-09-07T11:48:08;28.50;96.40
1083;DHT22;530;51.448;7.238;2023-09-07T11:50:35;28.50;96.10
1083;DHT22;530;51.448;7.238;2023-09-07T11:53:01;28.60;96.90
1083;DHT22;530;51.448;7.238;2023-09-07T11:55:26;28.60;96.70
1083;DHT22;530;51.448;7.238;2023-09-07T11:57:52;28.60;96.90
1083;DHT22;530;51.448;7.238;2023-09-07T12:00:18;28.60;96.60
1083;DHT22;530;51.448;7.238;2023-09-07T12:02:44;28.60;96.30
1083;DHT22;530;51.448;7.238;2023-09-07T12:05:10;28.60;94.20
1083;DHT22;530;51.448;7.238;2023-09-07T12:07:40;28.60;93.40
1083;DHT22;530;51.448;7.238;2023-09-07T12:10:06;28.70;94.80
1083;DHT22;530;51.448;7.238;2023-09-07T12:12:41;28.70;95.20
1083;DHT22;530;51.448;7.238;2023-09-07T12:15:07;28.80;95.80
1083;DHT22;530;51.448;7.238;2023-09-07T12:17:34;28.80;93.90
1083;DHT22;530;51.448;7.238;2023-09-07T12:20:00;28.80;94.50
1083;DHT22;530;51.448;7.238;2023-09-07T12:22:26;28.90;94.50
1083;DHT22;530;51.448;7.238;2023-09-07T12:24:52;28.90;94.80
1083;DHT22;530;51.448;7.238;2023-09-07T12:27:18;28.90;94.80
1083;DHT22;530;51.448;7.238;2023-09-07T12:29:44;29.00;94.90
1083;DHT22;530;51.448;7.238;2023-09-07T12:32:10;29.00;95.70
1083;DHT22;530;51.448;7.238;2023-09-07T12:34:36;29.10;95.40
1083;DHT22;530;51.448;7.238;2023-09-07T12:37:02;29.20;94.10
1083;DHT22;530;51.448;7.238;2023-09-07T12:39:32;29.20;93.90
1083;DHT22;530;51.448;7.238;2023-09-07T12:41:58;29.20;94.50
1083;DHT22;530;51.448;7.238;2023-09-07T12:44:26;29.20;96.50
1083;DHT22;530;51.448;7.238;2023-09-07T12:46:52;29.20;95.30
1083;DHT22;530;51.448;7.238;2023-09-07T12:49:18;29.20;96.70
1083;DHT22;530;51.448;7.238;2023-09-07T12:51:45;29.30;95.20
1083;DHT22;530;51.448;7.238;2023-09-07T12:54:12;29.30;95.20
1083;DHT22;530;51.448;7.238;2023-09-07T12:56:38;29.40;94.70
1083;DHT22;530;51.448;7.238;2023-09-07T12:59:03;29.50;95.90
1083;DHT22;530;51.448;7.238;2023-09-07T13:01:29;29.50;96.30
1083;DHT22;530;51.448;7.238;2023-09-07T13:03:56;29.60;95.90
1083;DHT22;530;51.448;7.238;2023-09-07T13:06:22;29.60;95.20
1083;DHT22;530;51.448;7.238;2023-09-07T13:08:48;29.60;94.60
1083;DHT22;530;51.448;7.238;2023-09-07T13:11:13;29.70;94.40
1083;DHT22;530;51.448;7.238;2023-09-07T13:13:39;29.70;94.90
1083;DHT22;530;51.448;7.238;2023-09-07T13:16:05;29.60;94.90
1083;DHT22;530;51.448;7.238;2023-09-07T13:18:30;29.70;95.90
1083;DHT22;530;51.448;7.238;2023-09-07T13:20:57;29.70;95.10
1083;DHT22;530;51.448;7.238;2023-09-07T13:23:29;29.70;93.80
1083;DHT22;530;51.448;7.238;2023-09-07T13:25:55;29.70;94.10
1083;DHT22;530;51.448;7.238;2023-09-07T13:28:22;29.70;94.00
1083;DHT22;530;51.448;7.238;2023-09-07T13:30:48;29.80;94.90
1083;DHT22;530;51.448;7.238;2023-09-07T13:33:14;29.80;95.20
1083;DHT22;530;51.448;7.238;2023-09-07T13:35:40;29.80;96.20
1083;DHT22;530;51.448;7.238;2023-09-07T13:38:05;29.80;95.60
1083;DHT22;530;51.448;7.238;2023-09-07T13:40:31;29.90;93.80
1083;DHT22;530;51.448;7.238;2023-09-07T13:42:57;29.90;93.20
1083;DHT22;530;51.448;7.238;2023-09-07T13:45:23;29.90;93.40
1083;DHT22;530;51.448;7.238;2023-09-07T13:47:48;29.90;92.90
1083;DHT22;530;51.448;7.238;2023-09-07T13:50:14;29.90;94.40
1083;DHT22;530;51.448;7.238;2023-09-07T13:52:40;29.90;95.20
1083;DHT22;530;51.448;7.238;2023-09-07T13:55:06;29.90;94.80
1083;DHT22;530;51.448;7.238;2023-09-07T13:57:35;30.00;95.60
1083;DHT22;530;51.448;7.238;2023-09-07T14:00:01;29.90;95.30
1083;DHT22;530;51.448;7.238;2023-09-07T14:02:27;29.90;95.40
1083;DHT22;530;51.448;7.238;2023-09-07T14:04:52;29.90;95.20
1083;DHT22;530;51.448;7.238;2023-09-07T14:07:18;29.90;96.10
1083;DHT22;530;51.448;7.238;2023-09-07T14:09:44;29.90;96.50
1083;DHT22;530;51.448;7.238;2023-09-07T14:12:10;29.90;96.50
1083;DHT22;530;51.448;7.238;2023-09-07T14:14:37;29.90;96.00
1083;DHT22;530;51.448;7.238;2023-09-07T14:17:03;30.00;96.00
1083;DHT22;530;51.448;7.238;2023-09-07T14:19:29;30.00;95.00
1083;DHT22;530;51.448;7.238;2023-09-07T14:21:57;29.90;96.00
1083;DHT22;530;51.448;7.238;2023-09-07T14:24:26;29.90;95.30
1083;DHT22;530;51.448;7.238;2023-09-07T14:26:52;30.00;94.90
1083;DHT22;530;51.448;7.238;2023-09-07T14:29:18;29.90;94.80
1083;DHT22;530;51.448;7.238;2023-09-07T14:31:43;29.90;94.60
1083;DHT22;530;51.448;7.238;2023-09-07T14:34:13;29.90;94.70
1083;DHT22;530;51.448;7.238;2023-09-07T14:36:38;29.90;95.70
1083;DHT22;530;51.448;7.238;2023-09-07T14:39:06;29.90;95.70
1083;DHT22;530;51.448;7.238;2023-09-07T14:41:32;29.90;95.00
1083;DHT22;530;51.448;7.238;2023-09-07T14:43:59;30.00;93.90
1083;DHT22;530;51.448;7.238;2023-09-07T14:46:25;29.90;94.90
1083;DHT22;530;51.448;7.238;2023-09-07T14:48:52;30.00;93.60
1083;DHT22;530;51.448;7.238;2023-09-07T14:51:18;30.00;92.70
1083;DHT22;530;51.448;7.238;2023-09-07T14:53:44;29.90;92.80
1083;DHT22;530;51.448;7.238;2023-09-07T14:56:10;29.90;94.60
1083;DHT22;530;51.448;7.238;2023-09-07T14:58:35;29.90;93.40
1083;DHT22;530;51.448;7.238;2023-09-07T15:01:01;29.90;93.40
1083;DHT22;530;51.448;7.238;2023-09-07T15:03:29;29.90;93.30
1083;DHT22;530;51.448;7.238;2023-09-07T15:05:54;29.90;93.20
1083;DHT22;530;51.448;7.238;2023-09-07T15:08:20;29.90;92.70
1083;DHT22;530;51.448;7.238;2023-09-07T15:10:46;29.80;93.10
1083;DHT22;530;51.448;7.238;2023-09-07T15:13:12;29.80;93.10
1083;DHT22;530;51.448;7.238;2023-09-07T15:15:38;29.80;91.80
1083;DHT22;530;51.448;7.238;2023-09-07T15:18:08;29.80;92.80
1083;DHT22;530;51.448;7.238;2023-09-07T15:20:37;29.70;92.30
1083;DHT22;530;51.448;7.238;2023-09-07T15:23:03;29.70;92.50
1083;DHT22;530;51.448;7.238;2023-09-07T15:25:29;29.70;92.20
1083;DHT22;530;51.448;7.238;2023-09-07T15:27:55;29.70;91.30
1083;DHT22;530;51.448;7.238;2023-09-07T15:30:23;29.70;90.80
1083;DHT22;530;51.448;7.238;2023-09-07T15:32:49;29.60;91.80
1083;DHT22;530;51.448;7.238;2023-09-07T15:35:16;29.60;92.00
1083;DHT22;530;51.448;7.238;2023-09-07T15:37:42;29.60;91.80
1083;DHT22;530;51.448;7.238;2023-09-07T15:40:12;29.50;91.80
1083;DHT22;530;51.448;7.238;2023-09-07T15:42:38;29.50;92.40
1083;DHT22;530;51.448;7.238;2023-09-07T15:45:04;29.50;91.90
1083;DHT22;530;51.448;7.238;2023-09-07T15:47:31;29.50;91.60
1083;DHT22;530;51.448;7.238;2023-09-07T15:49:59;29.40;92.10
1083;DHT22;530;51.448;7.238;2023-09-07T15:52:26;29.40;92.80
1083;DHT22;530;51.448;7.238;2023-09-07T15:54:52;29.40;92.40
1083;DHT22;530;51.448;7.238;2023-09-07T15:57:18;29.40;91.90
1083;DHT22;530;51.448;7.238;2023-09-07T15:59:45;29.40;92.00
1083;DHT22;530;51.448;7.238;2023-09-07T16:02:10;29.30;92.70
1083;DHT22;530;51.448;7.238;2023-09-07T16:04:36;29.20;93.00
1083;DHT22;530;51.448;7.238;2023-09-07T16:07:02;29.20;93.30
1083;DHT22;530;51.448;7.238;2023-09-07T16:09:27;29.20;92.60
1083;DHT22;530;51.448;7.238;2023-09-07T16:11:53;29.20;92.50
1083;DHT22;530;51.448;7.238;2023-09-07T16:14:19;29.10;93.10
1083;DHT22;530;51.448;7.238;2023-09-07T16:16:45;29.10;93.50
1083;DHT22;530;51.448;7.238;2023-09-07T16:19:10;29.00;93.30